sensor_id;sensor_type;location;lat;lon;timestamp;P1;durP1;ratioP1;P2;durP2;ratioP2
10565;SDS011;5331;48.148;16.326;2022-11-20T00:00:19;27.27;;;16.40;;
10565;SDS011;5331;48.148;16.326;2022-11-20T00:02:46;26.90;;;16.87;;
10565;SDS011;5331;48.148;16.326;2022-11-20T00:05:13;27.20;;;16.80;;
10565;SDS011;5331;48.148;16.326;2022-11-20T00:07:40;25.93;;;15.60;;
10565;SDS011;5331;48.148;16.326;2022-11-20T00:10:07;27.73;;;16.50;;
10565;SDS011;5331;48.148;16.326;2022-11-20T00:12:34;26.67;;;15.60;;
10565;SDS011;5331;48.148;16.326;2022-11-20T00:15:01;26.60;;;16.80;;
10565;SDS011;5331;48.148;16.326;2022-11-20T00:17:30;24.90;;;16.20;;
10565;SDS011;5331;48.148;16.326;2022-11-20T00:19:57;26.93;;;16.30;;
10565;SDS011;5331;48.148;16.326;2022-11-20T00:22:24;28.13;;;16.60;;
10565;SDS011;5331;48.148;16.326;2022-11-20T00:24:50;24.60;;;15.70;;
10565;SDS011;5331;48.148;16.326;2022-11-20T00:27:17;25.43;;;16.60;;
10565;SDS011;5331;48.148;16.326;2022-11-20T00:29:44;28.13;;;16.23;;
10565;SDS011;5331;48.148;16.326;2022-11-20T00:32:11;26.37;;;15.60;;
10565;SDS011;5331;48.148;16.326;2022-11-20T00:34:39;25.83;;;15.50;;
10565;SDS011;5331;48.148;16.326;2022-11-20T00:37:06;26.30;;;15.57;;
10565;SDS011;5331;48.148;16.326;2022-11-20T00:39:33;26.77;;;16.40;;
10565;SDS011;5331;48.148;16.326;2022-11-20T00:42:00;28.97;;;16.63;;
10565;SDS011;5331;48.148;16.326;2022-11-20T00:44:27;26.43;;;16.17;;
10565;SDS011;5331;48.148;16.326;2022-11-20T00:46:54;25.53;;;16.43;;
10565;SDS011;5331;48.148;16.326;2022-11-20T00:49:21;24.80;;;14.80;;
10565;SDS011;5331;48.148;16.326;2022-11-20T00:51:49;24.50;;;16.13;;
10565;SDS011;5331;48.148;16.326;2022-11-20T00:54:16;22.77;;;13.97;;
10565;SDS011;5331;48.148;16.326;2022-11-20T00:56:43;24.00;;;14.80;;
10565;SDS011;5331;48.148;16.326;2022-11-20T00:59:10;26.53;;;15.27;;
10565;SDS011;5331;48.148;16.326;2022-11-20T01:01:37;27.77;;;15.67;;
10565;SDS011;5331;48.148;16.326;2022-11-20T01:04:04;26.63;;;15.50;;
10565;SDS011;5331;48.148;16.326;2022-11-20T01:06:32;29.03;;;16.47;;
10565;SDS011;5331;48.148;16.326;2022-11-20T01:09:02;27.30;;;16.17;;
10565;SDS011;5331;48.148;16.326;2022-11-20T01:11:31;27.23;;;16.20;;
10565;SDS011;5331;48.148;16.326;2022-11-20T01:14:00;27.73;;;16.30;;
10565;SDS011;5331;48.148;16.326;2022-11-20T01:16:30;28.70;;;17.13;;
10565;SDS011;5331;48.148;16.326;2022-11-20T01:18:59;28.53;;;16.63;;
10565;SDS011;5331;48.148;16.326;2022-11-20T01:21:28;28.63;;;16.33;;
10565;SDS011;5331;48.148;16.326;2022-11-20T01:23:56;27.10;;;16.53;;
10565;SDS011;5331;48.148;16.326;2022-11-20T01:26:26;26.77;;;16.37;;
10565;SDS011;5331;48.148;16.326;2022-11-20T01:28:55;28.53;;;17.50;;
10565;SDS011;5331;48.148;16.326;2022-11-20T01:31:24;27.43;;;16.90;;
10565;SDS011;5331;48.148;16.326;2022-11-20T01:33:53;25.37;;;17.00;;
10565;SDS011;5331;48.148;16.326;2022-11-20T01:36:21;25.63;;;17.60;;
10565;SDS011;5331;48.148;16.326;2022-11-20T01:38:51;27.43;;;17.60;;
10565;SDS011;5331;48.148;16.326;2022-11-20T01:41:18;26.70;;;17.23;;
10565;SDS011;5331;48.148;16.326;2022-11-20T01:44:01;30.23;;;18.53;;
10565;SDS011;5331;48.148;16.326;2022-11-20T01:46:28;30.50;;;18.53;;
10565;SDS011;5331;48.148;16.326;2022-11-20T01:48:57;28.57;;;18.40;;
10565;SDS011;5331;48.148;16.326;2022-11-20T01:51:28;28.40;;;17.90;;
10565;SDS011;5331;48.148;16.326;2022-11-20T01:54:06;28.53;;;18.47;;
10565;SDS011;5331;48.148;16.326;2022-11-20T01:56:39;28.40;;;17.40;;
10565;SDS011;5331;48.148;16.326;2022-11-20T01:59:10;29.00;;;17.87;;
10565;SDS011;5331;48.148;16.326;2022-11-20T02:01:39;30.77;;;18.30;;
10565;SDS011;5331;48.148;16.326;2022-11-20T02:04:06;30.93;;;18.97;;
10565;SDS011;5331;48.148;16.326;2022-11-20T02:06:35;29.43;;;18.17;;
10565;SDS011;5331;48.148;16.326;2022-11-20T02:09:05;30.40;;;18.40;;
10565;SDS011;5331;48.148;16.326;2022-11-20T02:11:32;28.20;;;18.23;;
10565;SDS011;5331;48.148;16.326;2022-11-20T02:13:59;29.67;;;17.97;;
10565;SDS011;5331;48.148;16.326;2022-11-20T02:16:28;29.03;;;18.67;;
10565;SDS011;5331;48.148;16.326;2022-11-20T02:18:58;28.10;;;18.20;;
10565;SDS011;5331;48.148;16.326;2022-11-20T02:21:28;31.30;;;19.00;;
10565;SDS011;5331;48.148;16.326;2022-11-20T02:24:06;28.43;;;18.57;;
10565;SDS011;5331;48.148;16.326;2022-11-20T02:26:38;31.00;;;19.83;;
10565;SDS011;5331;48.148;16.326;2022-11-20T02:29:12;29.97;;;18.70;;
10565;SDS011;5331;48.148;16.326;2022-11-20T02:31:42;29.70;;;19.20;;
10565;SDS011;5331;48.148;16.326;2022-11-20T02:34:10;28.50;;;18.43;;
10565;SDS011;5331;48.148;16.326;2022-11-20T02:36:38;29.97;;;18.93;;
10565;SDS011;5331;48.148;16.326;2022-11-20T02:39:07;28.60;;;18.33;;
10565;SDS011;5331;48.148;16.326;2022-11-20T02:41:37;29.37;;;18.50;;
10565;SDS011;5331;48.148;16.326;2022-11-20T02:44:05;30.43;;;18.93;;
10565;SDS011;5331;48.148;16.326;2022-11-20T02:46:32;28.10;;;18.33;;
10565;SDS011;5331;48.148;16.326;2022-11-20T02:49:00;27.87;;;18.37;;
10565;SDS011;5331;48.148;16.326;2022-11-20T02:51:28;26.33;;;17.27;;
10565;SDS011;5331;48.148;16.326;2022-11-20T02:53:55;27.57;;;18.13;;
10565;SDS011;5331;48.148;16.326;2022-11-20T02:56:23;28.83;;;18.60;;
10565;SDS011;5331;48.148;16.326;2022-11-20T02:58:51;26.57;;;17.73;;
10565;SDS011;5331;48.148;16.326;2022-11-20T03:01:18;28.13;;;17.33;;
10565;SDS011;5331;48.148;16.326;2022-11-20T03:03:45;28.77;;;18.10;;
10565;SDS011;5331;48.148;16.326;2022-11-20T03:06:13;28.63;;;17.90;;
10565;SDS011;5331;48.148;16.326;2022-11-20T03:08:41;27.10;;;17.30;;
10565;SDS011;5331;48.148;16.326;2022-11-20T03:11:08;30.67;;;18.33;;
10565;SDS011;5331;48.148;16.326;2022-11-20T03:13:36;29.07;;;18.03;;
10565;SDS011;5331;48.148;16.326;2022-11-20T03:16:10;29.97;;;18.93;;
10565;SDS011;5331;48.148;16.326;2022-11-20T03:18:38;29.83;;;18.03;;
10565;SDS011;5331;48.148;16.326;2022-11-20T03:21:06;29.30;;;18.53;;
10565;SDS011;5331;48.148;16.326;2022-11-20T03:23:33;28.40;;;18.80;;
10565;SDS011;5331;48.148;16.326;2022-11-20T03:26:11;31.20;;;19.17;;
10565;SDS011;5331;48.148;16.326;2022-11-20T03:28:41;28.80;;;17.40;;
10565;SDS011;5331;48.148;16.326;2022-11-20T03:31:14;28.43;;;17.77;;
10565;SDS011;5331;48.148;16.326;2022-11-20T03:33:42;28.47;;;18.00;;
10565;SDS011;5331;48.148;16.326;2022-11-20T03:36:10;29.00;;;17.03;;
10565;SDS011;5331;48.148;16.326;2022-11-20T03:38:39;29.77;;;18.43;;
10565;SDS011;5331;48.148;16.326;2022-11-20T03:41:07;29.40;;;17.70;;
10565;SDS011;5331;48.148;16.326;2022-11-20T03:43:35;31.20;;;18.53;;
10565;SDS011;5331;48.148;16.326;2022-11-20T03:46:04;29.10;;;18.00;;
10565;SDS011;5331;48.148;16.326;2022-11-20T03:48:32;27.77;;;17.23;;
10565;SDS011;5331;48.148;16.326;2022-11-20T03:51:08;27.10;;;17.50;;
10565;SDS011;5331;48.148;16.326;2022-11-20T03:53:36;29.10;;;18.60;;
10565;SDS011;5331;48.148;16.326;2022-11-20T03:56:03;27.77;;;17.87;;
10565;SDS011;5331;48.148;16.326;2022-11-20T03:58:32;27.47;;;17.00;;
10565;SDS011;5331;48.148;16.326;2022-11-20T04:01:05;27.93;;;16.77;;
10565;SDS011;5331;48.148;16.326;2022-11-20T04:03:32;26.37;;;16.80;;
10565;SDS011;5331;48.148;16.326;2022-11-20T04:06:01;28.63;;;17.40;;
10565;SDS011;5331;48.148;16.326;2022-11-20T04:08:29;25.77;;;16.60;;
10565;SDS011;5331;48.148;16.326;2022-11-20T04:10:56;27.10;;;17.40;;
10565;SDS011;5331;48.148;16.326;2022-11-20T04:13:33;24.57;;;15.60;;
10565;SDS011;5331;48.148;16.326;2022-11-20T04:16:00;28.40;;;16.93;;
10565;SDS011;5331;48.148;16.326;2022-11-20T04:18:29;25.70;;;15.93;;
10565;SDS011;5331;48.148;16.326;2022-11-20T04:20:56;25.27;;;15.67;;
10565;SDS011;5331;48.148;16.326;2022-11-20T04:23:23;28.10;;;17.20;;
10565;SDS011;5331;48.148;16.326;2022-11-20T04:25:50;26.93;;;16.83;;
10565;SDS011;5331;48.148;16.326;2022-11-20T04:28:17;25.73;;;16.40;;
10565;SDS011;5331;48.148;16.326;2022-11-20T04:30:44;26.60;;;16.63;;
10565;SDS011;5331;48.148;16.326;2022-11-20T04:33:11;27.37;;;16.73;;
10565;SDS011;5331;48.148;16.326;2022-11-20T04:35:39;26.70;;;16.50;;
10565;SDS011;5331;48.148;16.326;2022-11-20T04:38:06;28.53;;;17.20;;
10565;SDS011;5331;48.148;16.326;2022-11-20T04:40:33;27.60;;;16.80;;
10565;SDS011;5331;48.148;16.326;2022-11-20T04:43:00;26.70;;;16.63;;
10565;SDS011;5331;48.148;16.326;2022-11-20T04:45:27;25.97;;;16.53;;
10565;SDS011;5331;48.148;16.326;2022-11-20T04:47:54;27.50;;;16.57;;
10565;SDS011;5331;48.148;16.326;2022-11-20T04:50:21;29.17;;;16.80;;
10565;SDS011;5331;48.148;16.326;2022-11-20T04:52:49;28.90;;;17.47;;
10565;SDS011;5331;48.148;16.326;2022-11-20T04:55:16;30.07;;;17.50;;
10565;SDS011;5331;48.148;16.326;2022-11-20T04:57:43;28.13;;;17.87;;
10565;SDS011;5331;48.148;16.326;2022-11-20T05:00:10;28.03;;;17.60;;
10565;SDS011;5331;48.148;16.326;2022-11-20T05:02:38;26.20;;;16.90;;
10565;SDS011;5331;48.148;16.326;2022-11-20T05:05:05;26.07;;;16.37;;
10565;SDS011;5331;48.148;16.326;2022-11-20T05:07:32;26.50;;;16.63;;
10565;SDS011;5331;48.148;16.326;2022-11-20T05:10:00;28.13;;;16.27;;
10565;SDS011;5331;48.148;16.326;2022-11-20T05:12:27;29.07;;;16.10;;
10565;SDS011;5331;48.148;16.326;2022-11-20T05:14:54;27.37;;;17.00;;
10565;SDS011;5331;48.148;16.326;2022-11-20T05:17:21;26.40;;;16.67;;
10565;SDS011;5331;48.148;16.326;2022-11-20T05:19:48;27.10;;;16.20;;
10565;SDS011;5331;48.148;16.326;2022-11-20T05:22:15;25.40;;;16.13;;
10565;SDS011;5331;48.148;16.326;2022-11-20T05:24:45;24.53;;;15.30;;
10565;SDS011;5331;48.148;16.326;2022-11-20T05:27:13;25.57;;;15.83;;
10565;SDS011;5331;48.148;16.326;2022-11-20T05:29:40;26.33;;;16.20;;
10565;SDS011;5331;48.148;16.326;2022-11-20T05:32:07;26.23;;;15.90;;
10565;SDS011;5331;48.148;16.326;2022-11-20T05:34:34;26.00;;;15.20;;
10565;SDS011;5331;48.148;16.326;2022-11-20T05:37:01;24.83;;;15.87;;
10565;SDS011;5331;48.148;16.326;2022-11-20T05:39:28;27.10;;;16.57;;
10565;SDS011;5331;48.148;16.326;2022-11-20T05:41:55;25.63;;;15.97;;
10565;SDS011;5331;48.148;16.326;2022-11-20T05:44:38;27.80;;;16.63;;
10565;SDS011;5331;48.148;16.326;2022-11-20T05:47:05;27.97;;;16.40;;
10565;SDS011;5331;48.148;16.326;2022-11-20T05:49:32;28.67;;;17.63;;
10565;SDS011;5331;48.148;16.326;2022-11-20T05:51:59;28.90;;;16.23;;
10565;SDS011;5331;48.148;16.326;2022-11-20T05:54:26;28.13;;;16.50;;
10565;SDS011;5331;48.148;16.326;2022-11-20T05:56:53;23.53;;;15.70;;
10565;SDS011;5331;48.148;16.326;2022-11-20T05:59:20;26.07;;;16.73;;
10565;SDS011;5331;48.148;16.326;2022-11-20T06:01:48;26.97;;;16.80;;
10565;SDS011;5331;48.148;16.326;2022-11-20T06:04:15;27.20;;;16.60;;
10565;SDS011;5331;48.148;16.326;2022-11-20T06:06:42;25.20;;;16.53;;
10565;SDS011;5331;48.148;16.326;2022-11-20T06:09:09;27.67;;;16.63;;
10565;SDS011;5331;48.148;16.326;2022-11-20T06:11:36;24.43;;;16.10;;
10565;SDS011;5331;48.148;16.326;2022-11-20T06:14:03;28.50;;;16.83;;
10565;SDS011;5331;48.148;16.326;2022-11-20T06:16:30;28.70;;;17.03;;
10565;SDS011;5331;48.148;16.326;2022-11-20T06:18:58;28.77;;;16.50;;
10565;SDS011;5331;48.148;16.326;2022-11-20T06:21:25;27.43;;;16.57;;
10565;SDS011;5331;48.148;16.326;2022-11-20T06:23:52;26.97;;;16.80;;
10565;SDS011;5331;48.148;16.326;2022-11-20T06:26:20;28.20;;;17.20;;
10565;SDS011;5331;48.148;16.326;2022-11-20T06:28:48;29.90;;;17.53;;
10565;SDS011;5331;48.148;16.326;2022-11-20T06:31:16;30.70;;;17.17;;
10565;SDS011;5331;48.148;16.326;2022-11-20T06:33:45;31.77;;;18.23;;
10565;SDS011;5331;48.148;16.326;2022-11-20T06:36:14;30.33;;;17.73;;
10565;SDS011;5331;48.148;16.326;2022-11-20T06:38:43;28.67;;;18.17;;
10565;SDS011;5331;48.148;16.326;2022-11-20T06:41:10;28.60;;;17.87;;
10565;SDS011;5331;48.148;16.326;2022-11-20T06:43:38;28.53;;;17.83;;
10565;SDS011;5331;48.148;16.326;2022-11-20T06:46:05;30.00;;;18.33;;
10565;SDS011;5331;48.148;16.326;2022-11-20T06:48:32;31.53;;;18.67;;
10565;SDS011;5331;48.148;16.326;2022-11-20T06:50:59;29.70;;;18.17;;
10565;SDS011;5331;48.148;16.326;2022-11-20T06:53:31;30.70;;;17.80;;
10565;SDS011;5331;48.148;16.326;2022-11-20T06:55:58;30.40;;;18.07;;
10565;SDS011;5331;48.148;16.326;2022-11-20T06:58:25;27.83;;;16.83;;
10565;SDS011;5331;48.148;16.326;2022-11-20T07:00:57;30.70;;;17.70;;
10565;SDS011;5331;48.148;16.326;2022-11-20T07:03:24;29.20;;;18.60;;
10565;SDS011;5331;48.148;16.326;2022-11-20T07:05:51;29.10;;;18.00;;
10565;SDS011;5331;48.148;16.326;2022-11-20T07:08:20;30.07;;;18.30;;
10565;SDS011;5331;48.148;16.326;2022-11-20T07:10:48;28.77;;;17.83;;
10565;SDS011;5331;48.148;16.326;2022-11-20T07:13:15;31.20;;;18.27;;
10565;SDS011;5331;48.148;16.326;2022-11-20T07:15:42;28.60;;;17.87;;
10565;SDS011;5331;48.148;16.326;2022-11-20T07:18:09;29.50;;;18.63;;
10565;SDS011;5331;48.148;16.326;2022-11-20T07:20:36;33.10;;;19.67;;
10565;SDS011;5331;48.148;16.326;2022-11-20T07:23:03;40.30;;;24.17;;
10565;SDS011;5331;48.148;16.326;2022-11-20T07:25:30;40.60;;;24.10;;
10565;SDS011;5331;48.148;16.326;2022-11-20T07:27:59;34.60;;;22.00;;
10565;SDS011;5331;48.148;16.326;2022-11-20T07:30:26;29.73;;;18.60;;
10565;SDS011;5331;48.148;16.326;2022-11-20T07:32:54;30.37;;;18.97;;
10565;SDS011;5331;48.148;16.326;2022-11-20T07:35:22;29.10;;;18.97;;
10565;SDS011;5331;48.148;16.326;2022-11-20T07:37:50;32.07;;;20.07;;
10565;SDS011;5331;48.148;16.326;2022-11-20T07:40:17;31.83;;;20.00;;
10565;SDS011;5331;48.148;16.326;2022-11-20T07:42:48;30.33;;;19.13;;
10565;SDS011;5331;48.148;16.326;2022-11-20T07:45:16;33.23;;;19.50;;
10565;SDS011;5331;48.148;16.326;2022-11-20T07:47:43;28.13;;;17.83;;
10565;SDS011;5331;48.148;16.326;2022-11-20T07:50:10;31.03;;;19.23;;
10565;SDS011;5331;48.148;16.326;2022-11-20T07:52:38;32.27;;;20.30;;
10565;SDS011;5331;48.148;16.326;2022-11-20T07:55:06;34.30;;;20.50;;
10565;SDS011;5331;48.148;16.326;2022-11-20T07:57:34;33.93;;;20.53;;
10565;SDS011;5331;48.148;16.326;2022-11-20T08:00:02;32.60;;;19.73;;
10565;SDS011;5331;48.148;16.326;2022-11-20T08:02:31;30.67;;;18.70;;
10565;SDS011;5331;48.148;16.326;2022-11-20T08:04:58;31.40;;;19.87;;
10565;SDS011;5331;48.148;16.326;2022-11-20T08:07:25;31.77;;;20.07;;
10565;SDS011;5331;48.148;16.326;2022-11-20T08:09:52;32.47;;;20.57;;
10565;SDS011;5331;48.148;16.326;2022-11-20T08:12:19;33.87;;;21.40;;
10565;SDS011;5331;48.148;16.326;2022-11-20T08:15:05;34.67;;;20.80;;
10565;SDS011;5331;48.148;16.326;2022-11-20T08:17:34;32.90;;;21.20;;
10565;SDS011;5331;48.148;16.326;2022-11-20T08:20:01;34.20;;;20.27;;
10565;SDS011;5331;48.148;16.326;2022-11-20T08:22:29;34.60;;;21.77;;
10565;SDS011;5331;48.148;16.326;2022-11-20T08:24:57;36.63;;;22.60;;
10565;SDS011;5331;48.148;16.326;2022-11-20T08:27:24;34.93;;;21.17;;
10565;SDS011;5331;48.148;16.326;2022-11-20T08:29:51;32.20;;;20.30;;
10565;SDS011;5331;48.148;16.326;2022-11-20T08:32:18;33.53;;;20.50;;
10565;SDS011;5331;48.148;16.326;2022-11-20T08:34:46;30.80;;;20.23;;
10565;SDS011;5331;48.148;16.326;2022-11-20T08:37:13;36.77;;;22.70;;
10565;SDS011;5331;48.148;16.326;2022-11-20T08:39:40;33.40;;;21.57;;
10565;SDS011;5331;48.148;16.326;2022-11-20T08:42:07;33.57;;;21.83;;
10565;SDS011;5331;48.148;16.326;2022-11-20T08:44:35;32.43;;;20.90;;
10565;SDS011;5331;48.148;16.326;2022-11-20T08:47:02;34.87;;;20.90;;
10565;SDS011;5331;48.148;16.326;2022-11-20T08:49:29;36.63;;;20.90;;
10565;SDS011;5331;48.148;16.326;2022-11-20T08:51:58;35.90;;;22.43;;
10565;SDS011;5331;48.148;16.326;2022-11-20T08:54:25;34.27;;;22.03;;
10565;SDS011;5331;48.148;16.326;2022-11-20T08:56:51;33.27;;;21.23;;
10565;SDS011;5331;48.148;16.326;2022-11-20T08:59:21;33.20;;;20.63;;
10565;SDS011;5331;48.148;16.326;2022-11-20T09:01:48;33.83;;;20.77;;
10565;SDS011;5331;48.148;16.326;2022-11-20T09:04:15;35.67;;;21.60;;
10565;SDS011;5331;48.148;16.326;2022-11-20T09:06:42;32.40;;;20.73;;
10565;SDS011;5331;48.148;16.326;2022-11-20T09:09:10;36.20;;;21.67;;
10565;SDS011;5331;48.148;16.326;2022-11-20T09:11:38;35.30;;;22.10;;
10565;SDS011;5331;48.148;16.326;2022-11-20T09:14:04;33.17;;;20.97;;
10565;SDS011;5331;48.148;16.326;2022-11-20T09:16:32;34.00;;;20.77;;
10565;SDS011;5331;48.148;16.326;2022-11-20T09:18:59;35.23;;;21.40;;
10565;SDS011;5331;48.148;16.326;2022-11-20T09:21:26;31.97;;;19.77;;
10565;SDS011;5331;48.148;16.326;2022-11-20T09:23:53;32.60;;;19.93;;
10565;SDS011;5331;48.148;16.326;2022-11-20T09:26:21;33.33;;;20.03;;
10565;SDS011;5331;48.148;16.326;2022-11-20T09:28:49;34.30;;;20.63;;
10565;SDS011;5331;48.148;16.326;2022-11-20T09:31:17;34.13;;;20.53;;
10565;SDS011;5331;48.148;16.326;2022-11-20T09:33:48;33.63;;;20.57;;
10565;SDS011;5331;48.148;16.326;2022-11-20T09:36:15;33.57;;;20.57;;
10565;SDS011;5331;48.148;16.326;2022-11-20T09:38:44;34.43;;;20.90;;
10565;SDS011;5331;48.148;16.326;2022-11-20T09:41:17;33.47;;;21.13;;
10565;SDS011;5331;48.148;16.326;2022-11-20T09:44:07;35.93;;;21.67;;
10565;SDS011;5331;48.148;16.326;2022-11-20T09:46:48;35.13;;;21.53;;
10565;SDS011;5331;48.148;16.326;2022-11-20T09:49:23;39.03;;;22.33;;
10565;SDS011;5331;48.148;16.326;2022-11-20T09:51:58;35.53;;;21.47;;
10565;SDS011;5331;48.148;16.326;2022-11-20T09:54:27;38.93;;;23.13;;
10565;SDS011;5331;48.148;16.326;2022-11-20T09:56:59;41.27;;;25.67;;
10565;SDS011;5331;48.148;16.326;2022-11-20T09:59:39;40.40;;;24.10;;
10565;SDS011;5331;48.148;16.326;2022-11-20T10:02:14;36.90;;;21.83;;
10565;SDS011;5331;48.148;16.326;2022-11-20T10:04:44;34.23;;;21.23;;
10565;SDS011;5331;48.148;16.326;2022-11-20T10:07:19;35.63;;;20.87;;
10565;SDS011;5331;48.148;16.326;2022-11-20T10:09:52;39.47;;;22.97;;
10565;SDS011;5331;48.148;16.326;2022-11-20T10:12:23;37.53;;;22.47;;
10565;SDS011;5331;48.148;16.326;2022-11-20T10:15:01;36.20;;;21.70;;
10565;SDS011;5331;48.148;16.326;2022-11-20T10:20:28;33.60;;;20.47;;
10565;SDS011;5331;48.148;16.326;2022-11-20T10:23:06;35.60;;;20.73;;
10565;SDS011;5331;48.148;16.326;2022-11-20T10:25:54;36.87;;;20.73;;
10565;SDS011;5331;48.148;16.326;2022-11-20T10:28:34;36.37;;;20.73;;
10565;SDS011;5331;48.148;16.326;2022-11-20T10:31:17;38.67;;;22.67;;
10565;SDS011;5331;48.148;16.326;2022-11-20T10:33:54;39.53;;;23.87;;
10565;SDS011;5331;48.148;16.326;2022-11-20T10:36:26;36.50;;;22.20;;
10565;SDS011;5331;48.148;16.326;2022-11-20T10:38:57;36.47;;;22.97;;
10565;SDS011;5331;48.148;16.326;2022-11-20T10:41:28;38.27;;;23.00;;
10565;SDS011;5331;48.148;16.326;2022-11-20T10:44:00;39.47;;;23.77;;
10565;SDS011;5331;48.148;16.326;2022-11-20T10:46:34;34.00;;;20.90;;
10565;SDS011;5331;48.148;16.326;2022-11-20T10:49:10;34.70;;;21.00;;
10565;SDS011;5331;48.148;16.326;2022-11-20T10:51:40;37.50;;;21.60;;
10565;SDS011;5331;48.148;16.326;2022-11-20T10:54:19;33.57;;;21.43;;
10565;SDS011;5331;48.148;16.326;2022-11-20T10:56:55;34.83;;;21.83;;
10565;SDS011;5331;48.148;16.326;2022-11-20T10:59:34;40.27;;;23.20;;
10565;SDS011;5331;48.148;16.326;2022-11-20T11:02:19;38.33;;;22.27;;
10565;SDS011;5331;48.148;16.326;2022-11-20T11:04:47;37.00;;;23.03;;
10565;SDS011;5331;48.148;16.326;2022-11-20T11:07:17;37.20;;;22.03;;
10565;SDS011;5331;48.148;16.326;2022-11-20T11:09:49;35.33;;;22.07;;
10565;SDS011;5331;48.148;16.326;2022-11-20T11:12:18;35.07;;;20.47;;
10565;SDS011;5331;48.148;16.326;2022-11-20T11:14:47;33.97;;;20.63;;
10565;SDS011;5331;48.148;16.326;2022-11-20T11:17:24;32.93;;;20.43;;
10565;SDS011;5331;48.148;16.326;2022-11-20T11:19:57;34.57;;;20.97;;
10565;SDS011;5331;48.148;16.326;2022-11-20T11:22:29;35.93;;;20.97;;
10565;SDS011;5331;48.148;16.326;2022-11-20T11:24:58;35.57;;;20.93;;
10565;SDS011;5331;48.148;16.326;2022-11-20T11:27:26;32.93;;;20.20;;
10565;SDS011;5331;48.148;16.326;2022-11-20T11:32:46;36.03;;;20.97;;
10565;SDS011;5331;48.148;16.326;2022-11-20T11:35:22;32.80;;;19.60;;
10565;SDS011;5331;48.148;16.326;2022-11-20T11:37:52;34.00;;;20.10;;
10565;SDS011;5331;48.148;16.326;2022-11-20T11:40:21;34.47;;;20.33;;
10565;SDS011;5331;48.148;16.326;2022-11-20T11:42:56;34.20;;;20.10;;
10565;SDS011;5331;48.148;16.326;2022-11-20T11:45:25;32.83;;;19.03;;
10565;SDS011;5331;48.148;16.326;2022-11-20T11:47:53;32.77;;;19.93;;
10565;SDS011;5331;48.148;16.326;2022-11-20T11:50:23;33.97;;;19.80;;
10565;SDS011;5331;48.148;16.326;2022-11-20T11:52:54;32.07;;;19.60;;
10565;SDS011;5331;48.148;16.326;2022-11-20T11:55:29;35.80;;;20.87;;
10565;SDS011;5331;48.148;16.326;2022-11-20T11:58:06;31.60;;;19.60;;
10565;SDS011;5331;48.148;16.326;2022-11-20T12:00:45;33.33;;;20.17;;
10565;SDS011;5331;48.148;16.326;2022-11-20T12:03:24;33.03;;;19.83;;
10565;SDS011;5331;48.148;16.326;2022-11-20T12:05:57;34.87;;;20.13;;
10565;SDS011;5331;48.148;16.326;2022-11-20T12:08:27;32.77;;;18.90;;
10565;SDS011;5331;48.148;16.326;2022-11-20T12:11:01;31.73;;;18.57;;
10565;SDS011;5331;48.148;16.326;2022-11-20T12:13:37;30.53;;;18.17;;
10565;SDS011;5331;48.148;16.326;2022-11-20T12:16:11;31.07;;;18.87;;
10565;SDS011;5331;48.148;16.326;2022-11-20T12:18:42;29.10;;;17.87;;
10565;SDS011;5331;48.148;16.326;2022-11-20T12:21:12;31.97;;;18.27;;
10565;SDS011;5331;48.148;16.326;2022-11-20T12:24:00;31.07;;;17.63;;
10565;SDS011;5331;48.148;16.326;2022-11-20T12:26:39;29.17;;;17.70;;
10565;SDS011;5331;48.148;16.326;2022-11-20T12:29:18;31.20;;;19.03;;
10565;SDS011;5331;48.148;16.326;2022-11-20T12:32:06;31.37;;;19.03;;
10565;SDS011;5331;48.148;16.326;2022-11-20T12:35:00;31.77;;;17.90;;
10565;SDS011;5331;48.148;16.326;2022-11-20T12:37:41;31.37;;;17.93;;
10565;SDS011;5331;48.148;16.326;2022-11-20T12:40:22;29.87;;;18.00;;
10565;SDS011;5331;48.148;16.326;2022-11-20T12:43:00;29.87;;;17.43;;
10565;SDS011;5331;48.148;16.326;2022-11-20T12:45:54;29.20;;;17.30;;
10565;SDS011;5331;48.148;16.326;2022-11-20T12:48:42;30.60;;;17.37;;
10565;SDS011;5331;48.148;16.326;2022-11-20T12:51:33;29.93;;;17.47;;
10565;SDS011;5331;48.148;16.326;2022-11-20T12:54:17;29.03;;;17.17;;
10565;SDS011;5331;48.148;16.326;2022-11-20T12:57:04;26.70;;;16.97;;
10565;SDS011;5331;48.148;16.326;2022-11-20T12:59:53;29.13;;;17.60;;
10565;SDS011;5331;48.148;16.326;2022-11-20T13:05:45;28.57;;;16.80;;
10565;SDS011;5331;48.148;16.326;2022-11-20T13:08:21;30.43;;;17.73;;
10565;SDS011;5331;48.148;16.326;2022-11-20T13:10:52;28.07;;;17.57;;
10565;SDS011;5331;48.148;16.326;2022-11-20T13:13:25;30.60;;;17.77;;
10565;SDS011;5331;48.148;16.326;2022-11-20T13:16:03;29.27;;;18.00;;
10565;SDS011;5331;48.148;16.326;2022-11-20T13:18:35;28.83;;;16.87;;
10565;SDS011;5331;48.148;16.326;2022-11-20T13:21:16;30.60;;;17.17;;
10565;SDS011;5331;48.148;16.326;2022-11-20T13:23:46;29.27;;;17.33;;
10565;SDS011;5331;48.148;16.326;2022-11-20T13:26:15;27.70;;;17.00;;
10565;SDS011;5331;48.148;16.326;2022-11-20T13:28:45;30.73;;;18.20;;
10565;SDS011;5331;48.148;16.326;2022-11-20T13:33:57;29.00;;;17.00;;
10565;SDS011;5331;48.148;16.326;2022-11-20T13:36:29;27.17;;;16.93;;
10565;SDS011;5331;48.148;16.326;2022-11-20T13:38:59;27.63;;;17.03;;
10565;SDS011;5331;48.148;16.326;2022-11-20T13:41:29;27.87;;;17.23;;
10565;SDS011;5331;48.148;16.326;2022-11-20T13:44:10;27.77;;;17.50;;
10565;SDS011;5331;48.148;16.326;2022-11-20T13:46:42;26.93;;;17.07;;
10565;SDS011;5331;48.148;16.326;2022-11-20T13:49:16;31.13;;;17.93;;
10565;SDS011;5331;48.148;16.326;2022-11-20T13:51:49;27.57;;;16.33;;
10565;SDS011;5331;48.148;16.326;2022-11-20T13:57:35;30.87;;;18.07;;
10565;SDS011;5331;48.148;16.326;2022-11-20T14:00:21;29.23;;;17.43;;
10565;SDS011;5331;48.148;16.326;2022-11-20T14:02:53;25.90;;;16.93;;
10565;SDS011;5331;48.148;16.326;2022-11-20T14:05:29;28.47;;;17.37;;
10565;SDS011;5331;48.148;16.326;2022-11-20T14:08:02;28.20;;;16.93;;
10565;SDS011;5331;48.148;16.326;2022-11-20T14:10:43;30.37;;;17.87;;
10565;SDS011;5331;48.148;16.326;2022-11-20T14:13:15;31.27;;;18.63;;
10565;SDS011;5331;48.148;16.326;2022-11-20T14:15:45;29.37;;;17.77;;
10565;SDS011;5331;48.148;16.326;2022-11-20T14:18:13;28.07;;;16.90;;
10565;SDS011;5331;48.148;16.326;2022-11-20T14:20:42;30.60;;;17.47;;
10565;SDS011;5331;48.148;16.326;2022-11-20T14:23:10;27.63;;;17.30;;
10565;SDS011;5331;48.148;16.326;2022-11-20T14:25:43;27.63;;;16.57;;
10565;SDS011;5331;48.148;16.326;2022-11-20T14:28:18;28.60;;;16.53;;
10565;SDS011;5331;48.148;16.326;2022-11-20T14:30:53;35.60;;;19.00;;
10565;SDS011;5331;48.148;16.326;2022-11-20T14:33:22;32.60;;;19.07;;
10565;SDS011;5331;48.148;16.326;2022-11-20T14:35:51;35.03;;;20.97;;
10565;SDS011;5331;48.148;16.326;2022-11-20T14:38:22;34.53;;;19.03;;
10565;SDS011;5331;48.148;16.326;2022-11-20T14:41:04;30.77;;;18.53;;
10565;SDS011;5331;48.148;16.326;2022-11-20T14:43:33;33.03;;;19.07;;
10565;SDS011;5331;48.148;16.326;2022-11-20T14:46:04;28.03;;;17.53;;
10565;SDS011;5331;48.148;16.326;2022-11-20T14:48:37;31.47;;;18.03;;
10565;SDS011;5331;48.148;16.326;2022-11-20T14:51:08;29.27;;;18.27;;
10565;SDS011;5331;48.148;16.326;2022-11-20T14:53:39;30.10;;;18.13;;